Time;durP1;ratioP1;P1;durP2;ratioP2;P2;SDS_P1;SDS_P2;PMS_P1;PMS_P2;Temp;Humidity;BMP_temperature;BMP_pressure;BME280_temperature;BME280_humidity;BME280_pressure;Samples;Min_cycle;Max_cycle;Signal;HPM_P1;HPM_P2
2022/05/10 00:00:53;;;;;;;5.30;2.70;;;11.70;99.90;;;;;;5115993;28;20221;-57
2022/05/10 00:03:23;;;;;;;2.75;2.30;;;11.70;99.90;;;;;;5115707;28;20252;-53
2022/05/10 00:05:51;;;;;;;4.13;2.50;;;11.60;99.90;;;;;;5115628;28;20208;-52
2022/05/10 00:08:18;;;;;;;6.22;3.45;;;11.50;99.90;;;;;;5116119;28;20212;-51
2022/05/10 00:10:47;;;;;;;3.05;2.75;;;11.40;99.90;;;;;;5116400;28;20431;-53
2022/05/10 00:13:15;;;;;;;2.60;2.38;;;11.40;99.90;;;;;;5115649;28;20206;-55
2022/05/10 00:15:43;;;;;;;7.53;3.00;;;11.50;99.90;;;;;;5116411;28;20208;-54
2022/05/10 00:18:14;;;;;;;7.63;3.17;;;11.40;99.90;;;;;;5118774;28;20204;-58
2022/05/10 00:20:43;;;;;;;12.63;3.95;;;11.30;99.90;;;;;;5117757;28;20287;-57
2022/05/10 00:23:10;;;;;;;4.80;4.32;;;11.30;99.90;;;;;;5117583;28;20228;-57
2022/05/10 00:25:41;;;;;;;8.05;3.35;;;11.30;99.90;;;;;;5116406;28;20201;-53
2022/05/10 00:28:09;;;;;;;3.90;3.60;;;11.20;99.90;;;;;;5116014;28;20201;-52
2022/05/10 00:30:36;;;;;;;5.90;3.95;;;11.20;99.90;;;;;;5115558;28;20378;-52
2022/05/10 00:33:08;;;;;;;9.50;3.42;;;11.30;99.90;;;;;;5115331;28;20212;-58
2022/05/10 00:35:36;;;;;;;5.65;3.08;;;11.00;99.90;;;;;;5117494;28;20227;-58
2022/05/10 00:38:04;;;;;;;5.90;4.10;;;11.10;99.90;;;;;;5116072;28;20570;-54
2022/05/10 00:40:34;;;;;;;7.00;3.75;;;11.10;99.90;;;;;;5115906;28;20287;-57
2022/05/10 00:43:10;;;;;;;5.43;4.00;;;11.00;99.90;;;;;;5115806;28;20224;-57
2022/05/10 00:46:06;;;;;;;4.13;3.35;;;11.00;99.90;;;;;;5116536;28;20201;-58
2022/05/10 00:48:33;;;;;;;8.73;3.40;;;11.00;99.90;;;;;;5115665;28;20663;-57
2022/05/10 00:51:29;;;;;;;5.18;3.65;;;10.90;99.90;;;;;;5115410;28;20226;-57
2022/05/10 00:54:27;;;;;;;7.00;3.08;;;10.80;99.90;;;;;;5115072;28;20532;-57
2022/05/10 00:57:10;;;;;;;5.30;2.90;;;10.70;99.90;;;;;;5115559;28;20216;-56
2022/05/10 00:59:53;;;;;;;3.97;3.15;;;10.60;99.90;;;;;;5115540;28;20208;-52
2022/05/10 01:03:08;;;;;;;6.35;2.90;;;10.70;99.90;;;;;;5115031;28;20296;-54
2022/05/10 01:06:08;;;;;;;4.25;2.85;;;10.60;99.90;;;;;;5115353;28;20507;-54
2022/05/10 01:08:48;;;;;;;3.05;2.72;;;10.60;99.90;;;;;;5115271;28;20423;-55
2022/05/10 01:11:28;;;;;;;5.63;3.80;;;10.70;99.90;;;;;;5114840;28;20224;-57
2022/05/10 01:13:59;;;;;;;5.32;4.10;;;10.50;99.90;;;;;;5115737;28;20306;-52
2022/05/10 01:16:26;;;;;;;8.30;4.57;;;10.40;99.90;;;;;;5114838;28;20271;-55
2022/05/10 01:18:55;;;;;;;3.63;3.28;;;10.40;99.90;;;;;;5115270;28;20266;-57
2022/05/10 01:21:50;;;;;;;3.97;3.15;;;10.40;99.90;;;;;;5115202;28;20565;-51
2022/05/10 01:24:42;;;;;;;4.40;3.00;;;10.40;99.90;;;;;;5115750;28;20251;-51
2022/05/10 01:27:31;;;;;;;3.75;3.35;;;10.50;99.90;;;;;;5114657;28;20208;-55
2022/05/10 01:30:06;;;;;;;7.57;4.32;;;10.30;99.90;;;;;;5115155;28;20271;-56
2022/05/10 01:35:43;;;;;;;5.40;3.45;;;10.30;99.90;;;;;;5115274;28;20306;-54
2022/05/10 01:38:54;;;;;;;6.45;3.95;;;10.20;99.90;;;;;;5113437;28;20292;-56
2022/05/10 01:41:47;;;;;;;4.88;4.22;;;10.10;99.90;;;;;;5106685;28;20501;-54
2022/05/10 01:44:21;;;;;;;4.63;4.20;;;10.20;99.90;;;;;;5115102;28;20224;-55
2022/05/10 01:46:53;;;;;;;7.35;3.75;;;10.10;99.90;;;;;;5118856;28;20519;-54
2022/05/10 01:49:39;;;;;;;4.80;3.65;;;10.20;99.90;;;;;;5118773;28;20212;-54
2022/05/10 01:52:11;;;;;;;7.57;4.45;;;10.10;99.90;;;;;;5118456;28;20601;-54
2022/05/10 01:54:41;;;;;;;8.07;4.40;;;10.00;99.90;;;;;;5118704;28;20394;-57
2022/05/10 01:57:13;;;;;;;5.13;4.45;;;10.00;99.90;;;;;;5119012;28;20214;-56
2022/05/10 01:59:48;;;;;;;4.20;3.42;;;10.00;99.90;;;;;;5119196;28;20200;-54
2022/05/10 02:02:19;;;;;;;4.68;4.15;;;10.10;99.90;;;;;;5118011;28;20228;-55
2022/05/10 02:04:54;;;;;;;4.53;4.13;;;10.10;99.90;;;;;;5120604;28;20216;-53
2022/05/10 02:07:25;;;;;;;6.47;4.10;;;10.00;99.90;;;;;;5118171;28;20270;-51
2022/05/10 02:10:00;;;;;;;4.05;3.70;;;10.10;99.90;;;;;;5118662;28;20200;-54
2022/05/10 02:12:44;;;;;;;4.47;4.03;;;10.00;99.90;;;;;;5117963;28;20224;-56
2022/05/10 02:15:21;;;;;;;3.85;3.50;;;9.90;99.90;;;;;;5118256;28;20515;-52
2022/05/10 02:18:17;;;;;;;4.32;3.92;;;10.00;99.90;;;;;;5117696;28;20546;-56
2022/05/10 02:21:09;;;;;;;4.07;3.67;;;10.00;99.90;;;;;;5117888;28;20259;-54
2022/05/10 02:23:47;;;;;;;7.72;4.15;;;9.80;99.90;;;;;;5115734;28;20494;-56
2022/05/10 02:26:36;;;;;;;5.57;3.28;;;9.90;99.90;;;;;;5096653;28;20292;-52
2022/05/10 02:29:36;;;;;;;5.40;4.22;;;10.00;99.90;;;;;;5114719;28;20212;-56
2022/05/10 02:35:22;;;;;;;5.53;3.67;;;9.90;99.90;;;;;;5116744;28;20235;-54
2022/05/10 02:37:49;;;;;;;5.05;4.32;;;9.90;99.90;;;;;;5118479;28;20423;-53
2022/05/10 02:40:17;;;;;;;4.80;4.00;;;9.90;99.90;;;;;;5117155;28;20204;-55
2022/05/10 02:42:48;;;;;;;5.80;3.53;;;10.00;99.90;;;;;;5117849;28;20224;-54
2022/05/10 02:45:20;;;;;;;5.78;4.35;;;10.00;99.90;;;;;;5116488;28;20514;-52
2022/05/10 02:47:48;;;;;;;3.25;2.97;;;10.00;99.90;;;;;;5117324;28;20207;-57
2022/05/10 02:50:33;;;;;;;6.70;4.03;;;9.90;99.90;;;;;;5117339;28;20247;-55
2022/05/10 02:53:00;;;;;;;7.50;4.50;;;9.90;99.90;;;;;;5117187;28;20212;-55
2022/05/10 02:55:55;;;;;;;4.82;3.50;;;9.80;99.90;;;;;;5117654;28;20438;-54
2022/05/10 02:58:42;;;;;;;4.20;3.80;;;9.80;99.90;;;;;;5116463;28;20868;-56
2022/05/10 03:01:38;;;;;;;3.78;3.47;;;9.80;99.90;;;;;;5116469;28;20232;-55
2022/05/10 03:04:10;;;;;;;7.15;4.15;;;9.70;99.90;;;;;;5116689;28;20235;-55
2022/05/10 03:06:39;;;;;;;7.00;3.95;;;9.80;99.90;;;;;;5117366;28;20580;-50
2022/05/10 03:09:07;;;;;;;6.40;4.00;;;9.80;99.90;;;;;;5116653;28;20403;-53
2022/05/10 03:11:35;;;;;;;4.70;3.75;;;9.90;99.90;;;;;;5117340;28;20230;-54
2022/05/10 03:14:07;;;;;;;4.95;3.42;;;9.90;99.90;;;;;;5117049;28;20204;-57
2022/05/10 03:16:35;;;;;;;7.43;4.00;;;9.80;99.90;;;;;;5117289;28;20207;-51
2022/05/10 03:19:04;;;;;;;8.93;4.25;;;9.80;99.90;;;;;;5117451;28;20254;-60
2022/05/10 03:21:41;;;;;;;8.85;4.60;;;9.90;99.90;;;;;;5117332;28;20466;-55
2022/05/10 03:24:08;;;;;;;4.55;3.88;;;9.80;99.90;;;;;;5117192;28;20234;-53
2022/05/10 03:26:37;;;;;;;5.43;4.32;;;9.80;99.90;;;;;;5116763;28;20204;-49
2022/05/10 03:29:07;;;;;;;7.25;3.85;;;9.90;99.90;;;;;;5117125;28;20239;-56
2022/05/10 03:31:34;;;;;;;3.75;3.35;;;9.80;99.90;;;;;;5117760;28;20224;-56
2022/05/10 03:36:48;;;;;;;4.35;3.95;;;9.70;99.90;;;;;;5121510;28;20314;-59
2022/05/10 03:39:18;;;;;;;4.50;3.45;;;9.70;99.90;;;;;;5121405;28;20236;-58
2022/05/10 03:41:49;;;;;;;6.05;4.30;;;9.70;99.90;;;;;;5119254;28;20304;-57
2022/05/10 03:44:16;;;;;;;4.13;3.55;;;9.70;99.90;;;;;;5119584;28;20232;-56
2022/05/10 03:46:48;;;;;;;6.20;3.45;;;9.80;99.90;;;;;;5123610;28;20196;-58
2022/05/10 03:49:16;;;;;;;7.85;3.42;;;10.00;99.90;;;;;;5126938;28;20196;-56
2022/05/10 03:51:46;;;;;;;9.23;4.65;;;10.10;99.90;;;;;;5120693;28;20707;-54
2022/05/10 03:54:13;;;;;;;5.22;4.40;;;10.00;99.90;;;;;;5116658;28;20274;-57
2022/05/10 03:56:43;;;;;;;8.80;3.53;;;10.00;99.90;;;;;;5116626;28;20212;-58
2022/05/10 03:59:11;;;;;;;6.18;4.10;;;10.20;99.90;;;;;;5116430;28;20485;-58
2022/05/10 04:01:38;;;;;;;8.07;4.93;;;10.20;99.90;;;;;;5107023;28;20243;-54
2022/05/10 04:04:05;;;;;;;5.38;4.88;;;10.30;99.90;;;;;;5104770;28;20233;-54
2022/05/10 04:06:37;;;;;;;7.60;4.05;;;10.30;99.90;;;;;;5115777;28;20512;-57
2022/05/10 04:09:04;;;;;;;7.05;5.05;;;10.40;99.90;;;;;;5115902;28;20249;-53
2022/05/10 04:11:33;;;;;;;4.40;4.00;;;10.50;99.90;;;;;;5115604;28;20587;-54
2022/05/10 04:14:00;;;;;;;5.05;3.95;;;10.50;99.90;;;;;;5115355;28;20399;-56
2022/05/10 04:16:28;;;;;;;4.68;3.88;;;10.60;99.90;;;;;;5115272;28;20308;-59
2022/05/10 04:18:56;;;;;;;4.80;4.38;;;10.70;99.90;;;;;;5099666;28;20213;-52
2022/05/10 04:21:23;;;;;;;4.60;4.13;;;10.80;99.90;;;;;;5092417;28;20229;-50
2022/05/10 04:23:51;;;;;;;4.45;3.95;;;10.90;99.90;;;;;;5107341;28;20284;-54
2022/05/10 04:26:19;;;;;;;4.93;3.83;;;11.10;99.90;;;;;;5115367;28;20293;-54
2022/05/10 04:28:46;;;;;;;8.60;4.50;;;11.30;99.90;;;;;;5114483;28;20377;-57
2022/05/10 04:31:14;;;;;;;6.15;4.45;;;11.20;99.90;;;;;;5115535;28;20262;-56
2022/05/10 04:33:42;;;;;;;7.25;5.00;;;11.20;99.90;;;;;;5114555;28;20209;-55
2022/05/10 04:36:09;;;;;;;6.45;4.35;;;11.20;99.90;;;;;;5115445;28;20236;-57
2022/05/10 04:38:44;;;;;;;5.53;4.53;;;11.30;99.90;;;;;;5115343;28;20280;-55
2022/05/10 04:41:25;;;;;;;4.72;3.85;;;11.30;99.90;;;;;;5115441;28;20277;-56
2022/05/10 04:44:10;;;;;;;4.30;3.58;;;11.40;99.90;;;;;;5100153;28;20419;-51
2022/05/10 04:46:42;;;;;;;5.72;3.35;;;11.60;99.90;;;;;;5102385;28;20232;-55
2022/05/10 04:49:13;;;;;;;7.30;4.13;;;11.80;99.90;;;;;;5115525;28;20231;-55
2022/05/10 04:51:43;;;;;;;6.55;4.55;;;11.80;99.90;;;;;;5115442;28;20313;-52
2022/05/10 04:54:11;;;;;;;4.60;3.53;;;11.80;99.90;;;;;;5087927;28;20202;-54
2022/05/10 04:56:38;;;;;;;5.88;3.35;;;11.80;99.90;;;;;;5094278;28;20219;-55
2022/05/10 04:59:05;;;;;;;8.00;4.22;;;11.90;99.90;;;;;;5106408;28;20214;-57
2022/05/10 05:01:35;;;;;;;6.65;4.57;;;11.90;99.90;;;;;;5115364;28;20274;-58
2022/05/10 05:04:04;;;;;;;7.22;5.55;;;11.90;99.90;;;;;;5114523;28;20232;-59
2022/05/10 05:06:33;;;;;;;7.63;5.68;;;12.10;99.90;;;;;;5115864;28;20209;-58
2022/05/10 05:09:00;;;;;;;5.00;4.50;;;12.30;99.90;;;;;;5098258;28;20552;-51
2022/05/10 05:11:28;;;;;;;8.00;5.35;;;12.40;99.90;;;;;;5096384;28;20244;-58
2022/05/10 05:13:55;;;;;;;5.03;4.60;;;12.60;99.90;;;;;;5097661;28;20209;-58
2022/05/10 05:16:23;;;;;;;4.90;4.50;;;12.70;99.90;;;;;;5101956;28;20277;-50
2022/05/10 05:18:51;;;;;;;5.40;4.53;;;12.90;99.90;;;;;;5100376;28;20225;-54
2022/05/10 05:21:18;;;;;;;5.55;4.88;;;12.90;99.90;;;;;;5110348;28;20296;-53
2022/05/10 05:23:46;;;;;;;11.13;5.60;;;12.90;99.90;;;;;;5114728;28;20205;-56
2022/05/10 05:26:13;;;;;;;7.30;4.93;;;13.10;99.90;;;;;;5120220;28;20606;-54
2022/05/10 05:28:40;;;;;;;6.47;5.05;;;13.10;99.90;;;;;;5119989;28;20574;-53
2022/05/10 05:31:09;;;;;;;5.82;5.00;;;13.10;99.90;;;;;;5119866;28;20271;-52
2022/05/10 05:33:37;;;;;;;6.35;4.80;;;13.20;99.90;;;;;;5120291;28;20281;-57
2022/05/10 05:36:04;;;;;;;6.90;4.68;;;13.30;99.90;;;;;;5120178;28;20201;-54
2022/05/10 05:38:31;;;;;;;7.72;5.13;;;13.30;99.90;;;;;;5120139;28;20210;-54
2022/05/10 05:41:02;;;;;;;9.27;4.43;;;13.40;99.90;;;;;;5119195;28;20245;-56
2022/05/10 05:43:29;;;;;;;7.45;4.55;;;13.60;99.90;;;;;;5120036;27;20230;-54
2022/05/10 05:46:01;;;;;;;6.03;4.32;;;13.90;99.90;;;;;;5119746;28;20225;-57
2022/05/10 05:48:29;;;;;;;10.60;5.40;;;14.20;99.90;;;;;;5120085;28;20190;-58
2022/05/10 05:50:57;;;;;;;7.50;4.32;;;14.30;99.90;;;;;;5120799;28;20301;-57
2022/05/10 05:53:26;;;;;;;8.02;5.20;;;14.40;99.90;;;;;;5121065;28;20198;-59
2022/05/10 05:56:10;;;;;;;5.80;4.47;;;14.60;99.90;;;;;;5120064;28;20242;-56
2022/05/10 05:58:39;;;;;;;7.63;4.20;;;14.60;99.90;;;;;;5119560;28;20204;-57
2022/05/10 06:01:14;;;;;;;9.43;5.03;;;14.80;99.90;;;;;;5122033;28;20230;-59
2022/05/10 06:03:42;;;;;;;6.35;4.65;;;15.00;99.90;;;;;;5121823;28;20233;-59
2022/05/10 06:06:11;;;;;;;8.83;5.10;;;15.20;99.90;;;;;;5119627;28;20357;-56
2022/05/10 06:08:43;;;;;;;8.60;5.13;;;15.50;99.90;;;;;;5119583;28;20411;-51
2022/05/10 06:11:10;;;;;;;9.17;5.80;;;15.70;99.90;;;;;;5119652;28;20940;-56
2022/05/10 06:13:37;;;;;;;6.83;5.10;;;15.70;99.90;;;;;;5120845;28;20507;-57
2022/05/10 06:16:09;;;;;;;6.80;5.37;;;15.80;99.90;;;;;;5119791;28;20799;-57
2022/05/10 06:18:36;;;;;;;7.27;4.63;;;16.10;99.90;;;;;;5119378;28;20940;-54
2022/05/10 06:21:04;;;;;;;5.90;5.30;;;16.20;99.90;;;;;;5118544;28;21004;-53
2022/05/10 06:23:31;;;;;;;6.73;5.20;;;16.60;99.90;;;;;;5119264;28;20539;-58
2022/05/10 06:25:58;;;;;;;10.27;5.27;;;16.90;99.90;;;;;;5119049;28;20439;-56
2022/05/10 06:28:25;;;;;;;5.07;4.57;;;17.00;99.90;;;;;;5119132;28;20470;-52
2022/05/10 06:30:53;;;;;;;8.40;4.90;;;17.20;99.90;;;;;;5118419;28;20589;-54
2022/05/10 06:33:23;;;;;;;8.40;5.83;;;17.30;99.90;;;;;;5118559;27;20435;-53
2022/05/10 06:35:53;;;;;;;5.07;4.43;;;17.50;99.90;;;;;;5118936;28;20789;-55
2022/05/10 06:38:27;;;;;;;9.20;4.63;;;17.70;99.90;;;;;;5113053;28;20732;-55
2022/05/10 06:40:56;;;;;;;8.83;6.17;;;18.10;99.90;;;;;;5107698;28;20433;-53
2022/05/10 06:43:35;;;;;;;5.07;4.20;;;18.80;99.90;;;;;;5100038;28;20454;-55
2022/05/10 06:46:09;;;;;;;10.93;5.20;;;20.20;99.90;;;;;;5101273;28;20453;-57
2022/05/10 06:48:45;;;;;;;8.67;6.40;;;21.40;99.90;;;;;;5099915;28;20403;-53
2022/05/10 06:51:14;;;;;;;5.57;4.67;;;22.50;99.90;;;;;;5098073;28;20745;-52
2022/05/10 06:53:42;;;;;;;8.67;5.07;;;22.60;99.90;;;;;;5098390;28;20469;-55
2022/05/10 06:56:10;;;;;;;6.90;4.87;;;22.40;99.90;;;;;;5097471;28;20439;-58
2022/05/10 06:58:42;;;;;;;6.00;4.83;;;22.40;99.90;;;;;;5098533;28;20410;-55
2022/05/10 07:01:13;;;;;;;10.77;6.33;;;22.00;99.90;;;;;;5097948;28;20454;-53
2022/05/10 07:03:44;;;;;;;8.40;5.30;;;22.20;99.90;;;;;;5098445;28;20420;-57
2022/05/10 07:06:13;;;;;;;14.93;5.63;;;23.30;98.40;;;;;;5097163;28;20683;-56
2022/05/10 07:08:41;;;;;;;7.27;6.00;;;24.80;95.80;;;;;;5097779;28;20478;-56
2022/05/10 07:11:09;;;;;;;5.33;4.83;;;26.30;92.00;;;;;;5097220;28;20463;-56
2022/05/10 07:13:40;;;;;;;6.63;5.50;;;28.20;85.20;;;;;;5097345;28;20536;-57
2022/05/10 07:16:10;;;;;;;6.97;4.83;;;28.70;80.80;;;;;;5097719;28;20751;-58
2022/05/10 07:18:38;;;;;;;5.60;5.10;;;29.60;74.40;;;;;;5097802;28;20846;-56
2022/05/10 07:21:05;;;;;;;7.07;4.33;;;29.30;71.80;;;;;;5097397;28;20528;-55
2022/05/10 07:23:33;;;;;;;4.57;4.20;;;28.40;71.70;;;;;;5097765;28;20431;-54
2022/05/10 07:26:04;;;;;;;5.67;4.87;;;27.90;72.40;;;;;;5097622;28;20701;-56
2022/05/10 07:28:32;;;;;;;18.63;6.00;;;26.70;74.10;;;;;;5097161;28;20513;-58
2022/05/10 07:31:00;;;;;;;9.30;4.90;;;25.90;76.20;;;;;;5097118;28;20815;-54
2022/05/10 07:33:28;;;;;;;4.87;4.37;;;27.30;74.00;;;;;;5097153;28;20774;-54
2022/05/10 07:38:44;;;;;;;4.53;4.13;;;28.20;70.20;;;;;;5097433;28;20427;-55
2022/05/10 07:41:14;;;;;;;5.57;4.60;;;27.90;71.50;;;;;;5097448;28;20465;-57
2022/05/10 07:43:41;;;;;;;6.63;4.53;;;29.00;68.90;;;;;;5097135;28;20684;-54
2022/05/10 07:46:11;;;;;;;7.10;5.60;;;28.80;68.20;;;;;;5096474;28;20777;-57
2022/05/10 07:48:39;;;;;;;16.00;5.30;;;30.30;64.80;;;;;;5097235;28;20458;-55
2022/05/10 07:51:07;;;;;;;4.50;4.13;;;32.10;60.80;;;;;;5096635;28;20525;-57
2022/05/10 07:53:36;;;;;;;4.70;4.27;;;33.00;57.90;;;;;;5097238;28;20426;-53
2022/05/10 07:56:07;;;;;;;5.83;5.13;;;33.70;57.10;;;;;;5097908;28;20505;-58
2022/05/10 07:58:56;;;;;;;7.00;4.97;;;34.40;55.20;;;;;;5097994;28;20434;-55
2022/05/10 08:01:25;;;;;;;9.63;4.80;;;35.20;53.00;;;;;;5097087;28;20486;-59
2022/05/10 08:03:53;;;;;;;6.40;4.23;;;35.60;51.90;;;;;;5097104;28;20445;-59
2022/05/10 08:06:20;;;;;;;5.60;4.83;;;34.80;52.40;;;;;;5097504;28;20658;-57
2022/05/10 08:08:51;;;;;;;5.17;4.67;;;35.40;51.80;;;;;;5096769;28;20498;-55
2022/05/10 08:11:23;;;;;;;6.47;4.90;;;33.30;52.00;;;;;;5096051;28;20454;-56
2022/05/10 08:13:50;;;;;;;7.37;4.97;;;32.10;53.90;;;;;;5096386;28;20439;-55
2022/05/10 08:16:17;;;;;;;11.50;5.37;;;31.40;54.90;;;;;;5096195;28;20537;-57
2022/05/10 08:18:49;;;;;;;14.93;5.47;;;30.40;56.80;;;;;;5096254;28;20444;-56
2022/05/10 08:21:16;;;;;;;7.57;4.87;;;31.10;56.30;;;;;;5096548;28;20465;-58
2022/05/10 08:23:44;;;;;;;12.93;4.70;;;31.00;55.40;;;;;;5096559;28;20508;-58
2022/05/10 08:26:12;;;;;;;7.63;5.47;;;30.50;55.70;;;;;;5095127;28;20579;-58
2022/05/10 08:28:39;;;;;;;4.90;4.43;;;31.50;54.50;;;;;;5097193;28;20970;-56
2022/05/10 08:31:08;;;;;;;7.10;5.60;;;31.90;54.20;;;;;;5095804;28;20455;-55
2022/05/10 08:33:41;;;;;;;5.23;4.70;;;32.50;53.90;;;;;;5095764;28;20438;-60
2022/05/10 08:36:09;;;;;;;7.20;4.33;;;34.30;52.40;;;;;;5096651;28;20561;-56
2022/05/10 08:38:37;;;;;;;5.30;4.40;;;35.40;50.80;;;;;;5097508;28;20435;-56
2022/05/10 08:41:08;;;;;;;4.90;4.00;;;35.50;49.50;;;;;;5095990;28;20468;-57
2022/05/10 08:44:05;;;;;;;6.43;4.30;;;35.50;48.70;;;;;;5096624;28;20434;-55
2022/05/10 08:46:43;;;;;;;4.00;3.70;;;33.10;50.60;;;;;;5096495;28;20473;-55
2022/05/10 08:49:48;;;;;;;4.53;4.13;;;31.90;52.50;;;;;;5096519;28;20662;-53
2022/05/10 08:52:16;;;;;;;4.30;3.80;;;32.20;52.10;;;;;;5095725;28;20454;-55
2022/05/10 08:54:45;;;;;;;4.63;4.20;;;32.80;51.30;;;;;;5099495;28;20686;-57
2022/05/10 08:57:31;;;;;;;5.43;4.93;;;33.00;51.60;;;;;;5100234;28;20434;-58
2022/05/10 09:00:12;;;;;;;4.70;4.30;;;33.70;50.80;;;;;;5099637;28;20431;-58
2022/05/10 09:02:44;;;;;;;6.90;4.00;;;31.50;52.60;;;;;;5101230;28;20661;-58
2022/05/10 09:05:22;;;;;;;4.43;3.30;;;31.80;52.90;;;;;;5100025;28;20530;-54
2022/05/10 09:08:25;;;;;;;3.73;3.17;;;33.50;50.90;;;;;;5100458;28;20442;-53
2022/05/10 09:11:04;;;;;;;3.67;3.10;;;32.60;52.00;;;;;;5099415;28;20458;-54
2022/05/10 09:13:32;;;;;;;3.03;2.83;;;33.60;49.10;;;;;;5100485;28;20501;-54
2022/05/10 09:16:03;;;;;;;3.10;2.80;;;33.30;48.50;;;;;;5100142;28;20753;-57
2022/05/10 09:18:46;;;;;;;3.33;3.03;;;32.00;48.30;;;;;;5100280;28;20430;-55
2022/05/10 09:21:33;;;;;;;3.90;2.33;;;33.70;48.40;;;;;;5099447;28;21038;-55
2022/05/10 09:24:00;;;;;;;4.50;2.70;;;33.70;47.30;;;;;;5099700;28;20431;-54
2022/05/10 09:26:46;;;;;;;3.07;2.40;;;32.40;48.60;;;;;;5099622;28;20485;-56
2022/05/10 09:29:35;;;;;;;3.20;2.70;;;31.40;50.60;;;;;;5099554;28;20503;-54
2022/05/10 09:35:17;;;;;;;4.20;2.97;;;27.20;55.00;;;;;;5097053;28;20438;-54
2022/05/10 09:37:55;;;;;;;8.33;3.07;;;26.10;57.30;;;;;;5091281;28;20467;-55
2022/05/10 09:40:43;;;;;;;2.43;2.27;;;25.20;58.50;;;;;;5094096;28;20610;-55
2022/05/10 09:43:32;;;;;;;5.00;2.47;;;24.30;58.40;;;;;;5091748;28;20522;-56
2022/05/10 09:46:18;;;;;;;8.70;3.47;;;24.00;61.30;;;;;;5093098;28;20554;-58
2022/05/10 09:48:47;;;;;;;3.37;3.07;;;23.90;60.70;;;;;;5094089;28;20801;-53
2022/05/10 09:51:45;;;;;;;3.90;2.97;;;23.80;62.40;;;;;;5109968;28;21121;-52
2022/05/10 09:54:25;;;;;;;2.43;2.23;;;23.40;63.60;;;;;;5119339;28;20469;-55
2022/05/10 09:56:56;;;;;;;9.07;3.10;;;23.20;63.10;;;;;;5120194;28;20453;-52
2022/05/10 09:59:28;;;;;;;3.77;2.80;;;22.90;64.50;;;;;;5119577;28;20430;-55
2022/05/10 10:02:00;;;;;;;3.67;3.37;;;22.80;65.60;;;;;;5119498;28;20466;-54
2022/05/10 10:04:37;;;;;;;8.50;4.20;;;22.80;65.90;;;;;;5118815;28;20804;-57
2022/05/10 10:07:18;;;;;;;3.70;3.13;;;22.80;66.60;;;;;;5118842;28;20653;-52
2022/05/10 10:09:48;;;;;;;4.17;3.40;;;22.80;68.60;;;;;;5119354;28;20458;-55
2022/05/10 10:12:49;;;;;;;7.20;3.80;;;22.70;67.50;;;;;;5117874;28;20863;-58
2022/05/10 10:15:38;;;;;;;5.67;4.20;;;22.50;69.30;;;;;;5095747;28;20625;-55
2022/05/10 10:18:08;;;;;;;2.87;2.67;;;22.80;67.80;;;;;;5118993;28;20434;-56
2022/05/10 10:20:49;;;;;;;4.03;3.53;;;22.70;67.40;;;;;;5119074;28;20466;-53
2022/05/10 10:23:37;;;;;;;4.10;2.97;;;22.60;67.60;;;;;;5119397;28;20449;-53
2022/05/10 10:26:25;;;;;;;3.20;2.90;;;22.70;67.50;;;;;;5119010;28;20701;-57
2022/05/10 10:28:58;;;;;;;4.67;4.10;;;22.70;68.30;;;;;;5119351;28;20426;-56
2022/05/10 10:31:33;;;;;;;7.63;3.23;;;22.80;67.30;;;;;;5118418;28;20816;-59
2022/05/10 10:34:12;;;;;;;3.43;3.13;;;22.70;67.50;;;;;;5118782;28;20456;-56
2022/05/10 10:37:24;;;;;;;5.20;2.70;;;22.70;68.40;;;;;;5118800;28;20441;-57
2022/05/10 10:40:25;;;;;;;4.20;2.63;;;22.90;70.00;;;;;;5075901;28;20459;-55
2022/05/10 10:43:26;;;;;;;4.10;2.87;;;23.30;68.20;;;;;;5075532;28;20493;-57
2022/05/10 10:46:27;;;;;;;4.63;3.20;;;23.50;68.60;;;;;;5116940;28;20817;-54
2022/05/10 10:49:10;;;;;;;10.23;3.30;;;23.20;67.50;;;;;;5118388;28;20489;-55
2022/05/10 10:51:38;;;;;;;3.13;2.83;;;22.90;70.60;;;;;;5118876;28;20792;-56
2022/05/10 10:54:28;;;;;;;4.70;3.33;;;22.90;69.10;;;;;;5118151;28;20640;-55
2022/05/10 10:57:20;;;;;;;4.90;3.77;;;23.00;70.00;;;;;;5117760;28;20430;-59
2022/05/10 11:00:13;;;;;;;5.83;3.00;;;23.10;70.90;;;;;;5118416;28;20460;-56
2022/05/10 11:03:05;;;;;;;3.83;3.53;;;23.10;70.30;;;;;;5118797;28;20465;-54
2022/05/10 11:06:00;;;;;;;3.30;2.93;;;22.90;70.50;;;;;;5118710;28;20611;-58
2022/05/10 11:09:08;;;;;;;5.00;3.33;;;22.50;71.30;;;;;;5118028;28;20434;-53
2022/05/10 11:12:10;;;;;;;4.70;2.80;;;22.50;72.40;;;;;;5118327;28;20441;-53
2022/05/10 11:15:16;;;;;;;2.73;2.53;;;22.40;72.40;;;;;;5081005;28;20420;-53
2022/05/10 11:17:53;;;;;;;4.20;3.00;;;22.80;74.40;;;;;;5117842;28;20434;-58
2022/05/10 11:20:45;;;;;;;3.47;3.00;;;23.00;73.20;;;;;;5118249;28;20731;-56
2022/05/10 11:23:30;;;;;;;3.50;3.20;;;23.30;72.30;;;;;;5117740;28;20434;-55
2022/05/10 11:26:05;;;;;;;5.27;3.43;;;23.20;71.30;;;;;;5118091;28;20444;-55
2022/05/10 11:28:35;;;;;;;2.60;2.40;;;23.10;70.60;;;;;;5117367;28;20433;-55
2022/05/10 11:31:15;;;;;;;2.73;2.50;;;22.90;71.60;;;;;;5117673;28;20835;-57
2022/05/10 11:34:10;;;;;;;3.07;2.73;;;23.20;73.20;;;;;;5118140;28;20433;-54
2022/05/10 11:36:41;;;;;;;4.30;3.17;;;23.20;71.40;;;;;;5118063;28;20430;-51
2022/05/10 11:39:46;;;;;;;6.83;3.87;;;23.30;71.90;;;;;;5117389;28;20837;-55
2022/05/10 11:42:33;;;;;;;3.47;3.13;;;23.30;73.10;;;;;;5117712;28;20439;-53
2022/05/10 11:45:09;;;;;;;4.53;2.70;;;23.60;71.90;;;;;;5117794;28;20500;-54
2022/05/10 11:47:57;;;;;;;3.70;3.40;;;23.70;69.50;;;;;;5117061;28;20460;-57
2022/05/10 11:51:38;;;;;;;3.50;3.20;;;23.70;70.00;;;;;;5117067;28;20495;-56
2022/05/10 11:53:49;;;;;;;2.73;2.53;;;23.60;70.90;;;;;;5117541;28;20426;-54
2022/05/10 11:56:17;;;;;;;8.17;3.23;;;23.70;70.60;;;;;;5117217;28;20445;-54
2022/05/10 11:58:45;;;;;;;2.70;2.50;;;24.00;71.10;;;;;;5117639;28;20704;-54
2022/05/10 12:01:33;;;;;;;9.37;3.10;;;23.90;68.00;;;;;;5116336;28;20514;-58
2022/05/10 12:04:00;;;;;;;3.30;2.80;;;23.40;68.90;;;;;;5117211;28;20408;-56
2022/05/10 12:06:28;;;;;;;2.40;2.20;;;23.30;71.60;;;;;;5117191;28;20480;-57
2022/05/10 12:08:59;;;;;;;3.60;3.27;;;23.50;70.00;;;;;;5117682;28;20769;-55
2022/05/10 12:11:30;;;;;;;2.80;2.57;;;23.40;70.00;;;;;;5116815;28;20444;-57
2022/05/10 12:22:57;;;;;;;3.57;3.00;;;23.50;71.70;;;;;;5116727;28;20466;-55
2022/05/10 12:25:59;;;;;;;5.83;3.07;;;23.70;71.90;;;;;;5117036;28;20505;-56
2022/05/10 12:28:41;;;;;;;2.57;2.37;;;23.90;70.60;;;;;;5116513;28;20429;-55
2022/05/10 12:31:33;;;;;;;3.90;3.60;;;24.00;71.60;;;;;;5117686;28;20450;-57
2022/05/10 12:34:10;;;;;;;3.07;2.77;;;24.10;70.80;;;;;;5106413;28;20397;-56
2022/05/10 12:36:39;;;;;;;3.77;3.00;;;24.10;70.10;;;;;;5126458;28;20437;-57
2022/05/10 12:39:22;;;;;;;2.60;2.40;;;24.10;69.10;;;;;;5127165;28;20450;-59
2022/05/10 12:41:52;;;;;;;5.93;2.90;;;24.00;70.40;;;;;;5118013;28;20450;-57
2022/05/10 12:44:47;;;;;;;5.90;2.33;;;24.20;70.70;;;;;;5116829;28;20469;-62
2022/05/10 12:47:39;;;;;;;3.43;2.70;;;24.20;70.50;;;;;;5116497;28;20466;-57
2022/05/10 12:50:39;;;;;;;2.47;2.33;;;24.10;69.90;;;;;;5116736;28;20434;-54
2022/05/10 12:53:37;;;;;;;7.33;3.27;;;24.20;69.70;;;;;;5115833;28;20435;-53
2022/05/10 12:56:14;;;;;;;4.83;2.63;;;24.10;70.70;;;;;;5116858;28;20430;-55
2022/05/10 12:58:45;;;;;;;2.90;2.40;;;24.20;70.20;;;;;;5117048;28;20429;-54
2022/05/10 13:01:15;;;;;;;2.23;2.07;;;24.20;70.10;;;;;;5116381;28;20735;-55
2022/05/10 13:03:51;;;;;;;4.33;3.93;;;24.10;70.60;;;;;;5116202;28;20438;-58
2022/05/10 13:06:23;;;;;;;2.73;2.47;;;24.20;72.30;;;;;;5116307;28;20469;-55
2022/05/10 13:09:04;;;;;;;4.77;3.30;;;24.40;70.50;;;;;;5116834;28;20498;-55
2022/05/10 13:11:45;;;;;;;3.13;2.50;;;24.60;69.80;;;;;;5116865;28;20476;-56
2022/05/10 13:14:17;;;;;;;4.10;3.57;;;24.60;70.20;;;;;;5092801;28;20517;-57
2022/05/10 13:16:51;;;;;;;2.80;2.60;;;24.60;68.90;;;;;;5081801;28;20510;-58
2022/05/10 13:19:22;;;;;;;3.33;2.53;;;24.50;70.00;;;;;;5081078;28;20526;-57
2022/05/10 13:21:55;;;;;;;7.20;2.37;;;24.30;70.00;;;;;;5082513;28;20866;-53
2022/05/10 13:24:23;;;;;;;2.60;2.40;;;24.00;70.10;;;;;;5086887;28;20410;-53
2022/05/10 13:26:54;;;;;;;4.20;2.87;;;23.70;71.10;;;;;;5078349;28;20500;-53
2022/05/10 13:29:38;;;;;;;2.83;2.60;;;23.70;71.50;;;;;;5087883;28;20488;-56
2022/05/10 13:32:26;;;;;;;2.90;2.60;;;23.70;71.30;;;;;;5085120;28;20470;-57
2022/05/10 13:35:16;;;;;;;2.47;2.33;;;23.70;71.40;;;;;;5083642;28;20511;-55
2022/05/10 13:37:57;;;;;;;5.87;4.20;;;23.80;72.40;;;;;;5087551;28;20497;-54
2022/05/10 13:40:48;;;;;;;2.90;2.30;;;24.20;73.30;;;;;;5089846;28;20438;-53
2022/05/10 13:43:21;;;;;;;3.53;2.20;;;24.20;70.70;;;;;;5099140;28;20474;-54
2022/05/10 13:45:58;;;;;;;2.93;2.10;;;23.90;71.10;;;;;;5098986;28;20831;-55
2022/05/10 13:48:30;;;;;;;2.70;2.30;;;23.90;71.50;;;;;;5095614;28;20505;-56
2022/05/10 13:51:07;;;;;;;2.90;2.70;;;24.00;72.10;;;;;;5101065;28;20793;-52
2022/05/10 13:53:38;;;;;;;4.93;2.80;;;24.00;72.00;;;;;;5096700;28;20699;-55
2022/05/10 13:56:05;;;;;;;2.40;2.20;;;24.10;71.60;;;;;;5105763;28;20636;-53